sensor_id;sensor_type;location;lat;lon;timestamp;pressure;altitude;pressure_sealevel;temperature;humidity
11605;BME280;5858;43.076;25.626;2023-05-10T00:00:55;99745.50;;;10.63;84.42
11605;BME280;5858;43.076;25.626;2023-05-10T00:03:22;99673.88;;;10.18;84.48
11605;BME280;5858;43.076;25.626;2023-05-10T00:05:49;99820.66;;;11.01;84.27
11605;BME280;5858;43.076;25.626;2023-05-10T00:08:16;99759.72;;;10.64;84.79
11605;BME280;5858;43.076;25.626;2023-05-10T00:10:43;99809.63;;;10.96;85.94
11605;BME280;5858;43.076;25.626;2023-05-10T00:13:10;99801.94;;;10.85;85.83
11605;BME280;5858;43.076;25.626;2023-05-10T00:15:39;99645.75;;;9.75;86.08
11605;BME280;5858;43.076;25.626;2023-05-10T00:18:06;99783.09;;;10.70;86.53
11605;BME280;5858;43.076;25.626;2023-05-10T00:20:33;99763.78;;;10.52;85.90
11605;BME280;5858;43.076;25.626;2023-05-10T00:23:00;99781.09;;;10.72;85.60
11605;BME280;5858;43.076;25.626;2023-05-10T00:25:27;99783.47;;;10.59;85.83
11605;BME280;5858;43.076;25.626;2023-05-10T00:27:54;99738.25;;;10.25;86.84
11605;BME280;5858;43.076;25.626;2023-05-10T00:30:22;99784.00;;;10.54;87.91
11605;BME280;5858;43.076;25.626;2023-05-10T00:32:51;99747.94;;;10.26;88.71
11605;BME280;5858;43.076;25.626;2023-05-10T00:35:18;99779.00;;;10.51;88.96
11605;BME280;5858;43.076;25.626;2023-05-10T00:37:45;99727.91;;;10.05;88.99
11605;BME280;5858;43.076;25.626;2023-05-10T00:40:12;99707.00;;;10.09;89.25
11605;BME280;5858;43.076;25.626;2023-05-10T00:42:40;99756.97;;;10.25;88.70
11605;BME280;5858;43.076;25.626;2023-05-10T00:45:07;99723.38;;;10.06;89.41
11605;BME280;5858;43.076;25.626;2023-05-10T00:47:34;99671.13;;;9.79;89.54
11605;BME280;5858;43.076;25.626;2023-05-10T00:50:04;99714.00;;;10.18;88.24
11605;BME280;5858;43.076;25.626;2023-05-10T00:52:32;99772.66;;;10.36;86.92
11605;BME280;5858;43.076;25.626;2023-05-10T00:55:00;99781.50;;;10.53;85.94
11605;BME280;5858;43.076;25.626;2023-05-10T00:57:28;99777.16;;;10.35;86.03
11605;BME280;5858;43.076;25.626;2023-05-10T00:59:56;99729.72;;;10.13;86.12
11605;BME280;5858;43.076;25.626;2023-05-10T01:02:24;99709.22;;;9.97;85.98
11605;BME280;5858;43.076;25.626;2023-05-10T01:04:51;99770.31;;;10.33;84.97
11605;BME280;5858;43.076;25.626;2023-05-10T01:07:20;99730.91;;;10.10;84.28
11605;BME280;5858;43.076;25.626;2023-05-10T01:09:47;99760.47;;;10.17;84.14
11605;BME280;5858;43.076;25.626;2023-05-10T01:12:14;99766.13;;;10.38;85.01
11605;BME280;5858;43.076;25.626;2023-05-10T01:14:41;99763.81;;;10.27;86.12
11605;BME280;5858;43.076;25.626;2023-05-10T01:17:10;99766.28;;;10.37;86.48
11605;BME280;5858;43.076;25.626;2023-05-10T01:19:38;99713.19;;;10.09;87.85
11605;BME280;5858;43.076;25.626;2023-05-10T01:22:15;99684.97;;;9.99;87.73
11605;BME280;5858;43.076;25.626;2023-05-10T01:25:11;99684.50;;;9.95;87.97
11605;BME280;5858;43.076;25.626;2023-05-10T01:28:12;99701.50;;;10.02;87.60
11605;BME280;5858;43.076;25.626;2023-05-10T01:31:14;99682.16;;;9.76;88.38
11605;BME280;5858;43.076;25.626;2023-05-10T01:33:51;99673.66;;;9.72;88.06
11605;BME280;5858;43.076;25.626;2023-05-10T01:36:26;99738.75;;;10.28;89.26
11605;BME280;5858;43.076;25.626;2023-05-10T01:38:59;99769.31;;;10.42;88.88
11605;BME280;5858;43.076;25.626;2023-05-10T01:41:36;99761.78;;;10.46;88.24
11605;BME280;5858;43.076;25.626;2023-05-10T01:44:15;99714.38;;;10.07;88.85
11605;BME280;5858;43.076;25.626;2023-05-10T01:46:48;99708.88;;;9.84;89.79
11605;BME280;5858;43.076;25.626;2023-05-10T01:49:23;99634.44;;;9.16;90.11
11605;BME280;5858;43.076;25.626;2023-05-10T01:51:54;99753.13;;;10.11;90.11
11605;BME280;5858;43.076;25.626;2023-05-10T01:54:24;99739.09;;;9.85;89.72
11605;BME280;5858;43.076;25.626;2023-05-10T01:57:06;99762.31;;;10.08;90.12
11605;BME280;5858;43.076;25.626;2023-05-10T01:59:37;99756.28;;;10.15;88.87
11605;BME280;5858;43.076;25.626;2023-05-10T02:02:06;99774.19;;;10.06;89.56
11605;BME280;5858;43.076;25.626;2023-05-10T02:04:39;99597.91;;;9.17;88.73
11605;BME280;5858;43.076;25.626;2023-05-10T02:07:08;99768.34;;;9.94;87.62
11605;BME280;5858;43.076;25.626;2023-05-10T02:09:36;99753.13;;;9.87;88.27
11605;BME280;5858;43.076;25.626;2023-05-10T02:12:05;99757.66;;;10.02;89.69
11605;BME280;5858;43.076;25.626;2023-05-10T02:14:36;99678.34;;;9.54;89.44
11605;BME280;5858;43.076;25.626;2023-05-10T02:17:05;99727.56;;;9.92;89.61
11605;BME280;5858;43.076;25.626;2023-05-10T02:19:33;99701.88;;;9.75;90.59
11605;BME280;5858;43.076;25.626;2023-05-10T02:22:03;99667.31;;;9.57;90.49
11605;BME280;5858;43.076;25.626;2023-05-10T02:24:32;99595.91;;;9.19;90.59
11605;BME280;5858;43.076;25.626;2023-05-10T02:27:02;99697.84;;;9.79;90.22
11605;BME280;5858;43.076;25.626;2023-05-10T02:29:31;99731.78;;;9.95;91.45
11605;BME280;5858;43.076;25.626;2023-05-10T02:31:59;99753.28;;;10.09;91.88
11605;BME280;5858;43.076;25.626;2023-05-10T02:34:27;99704.69;;;9.90;92.42
11605;BME280;5858;43.076;25.626;2023-05-10T02:36:55;99700.69;;;9.94;92.30
11605;BME280;5858;43.076;25.626;2023-05-10T02:39:24;99676.00;;;9.67;92.61
11605;BME280;5858;43.076;25.626;2023-05-10T02:41:54;99736.28;;;9.94;93.76
11605;BME280;5858;43.076;25.626;2023-05-10T02:44:22;99700.22;;;9.58;93.40
11605;BME280;5858;43.076;25.626;2023-05-10T02:46:50;99656.97;;;9.22;94.11
11605;BME280;5858;43.076;25.626;2023-05-10T02:49:18;99645.13;;;9.08;94.58
11605;BME280;5858;43.076;25.626;2023-05-10T02:51:51;99743.97;;;9.49;95.39
11605;BME280;5858;43.076;25.626;2023-05-10T02:54:26;99631.69;;;8.67;95.88
11605;BME280;5858;43.076;25.626;2023-05-10T02:56:57;99653.91;;;8.84;95.29
11605;BME280;5858;43.076;25.626;2023-05-10T02:59:24;99756.25;;;9.25;96.03
11605;BME280;5858;43.076;25.626;2023-05-10T03:01:51;99722.19;;;9.11;96.63
11605;BME280;5858;43.076;25.626;2023-05-10T03:04:19;99745.38;;;9.02;96.14
11605;BME280;5858;43.076;25.626;2023-05-10T03:06:46;99720.97;;;8.97;96.16
11605;BME280;5858;43.076;25.626;2023-05-10T03:09:16;99719.38;;;9.12;96.07
11605;BME280;5858;43.076;25.626;2023-05-10T03:11:55;99725.69;;;9.03;95.88
11605;BME280;5858;43.076;25.626;2023-05-10T03:14:35;99712.34;;;9.03;95.11
11605;BME280;5858;43.076;25.626;2023-05-10T03:17:11;99752.91;;;9.23;95.56
11605;BME280;5858;43.076;25.626;2023-05-10T03:19:48;99684.25;;;8.75;94.79
11605;BME280;5858;43.076;25.626;2023-05-10T03:22:24;99700.13;;;8.93;94.89
11605;BME280;5858;43.076;25.626;2023-05-10T03:24:55;99721.56;;;9.25;94.54
11605;BME280;5858;43.076;25.626;2023-05-10T03:27:29;99657.41;;;8.93;94.40
11605;BME280;5858;43.076;25.626;2023-05-10T03:30:01;99706.16;;;9.03;95.49
11605;BME280;5858;43.076;25.626;2023-05-10T03:32:32;99732.41;;;9.32;94.47
11605;BME280;5858;43.076;25.626;2023-05-10T03:35:00;99715.22;;;9.42;93.49
11605;BME280;5858;43.076;25.626;2023-05-10T03:37:27;99716.38;;;9.40;92.45
11605;BME280;5858;43.076;25.626;2023-05-10T03:39:54;99672.97;;;9.30;91.88
11605;BME280;5858;43.076;25.626;2023-05-10T03:42:21;99764.66;;;10.12;91.62
11605;BME280;5858;43.076;25.626;2023-05-10T03:44:49;99657.66;;;9.48;90.92
11605;BME280;5858;43.076;25.626;2023-05-10T03:47:17;99741.28;;;10.05;89.96
11605;BME280;5858;43.076;25.626;2023-05-10T03:49:44;99779.03;;;10.27;90.61
11605;BME280;5858;43.076;25.626;2023-05-10T03:52:11;99800.25;;;10.45;90.18
11605;BME280;5858;43.076;25.626;2023-05-10T03:54:38;99799.63;;;10.82;89.81
11605;BME280;5858;43.076;25.626;2023-05-10T03:57:06;99752.97;;;11.15;87.69
11605;BME280;5858;43.076;25.626;2023-05-10T03:59:33;99800.50;;;12.36;84.99
11605;BME280;5858;43.076;25.626;2023-05-10T04:02:02;99798.22;;;12.62;80.38
11605;BME280;5858;43.076;25.626;2023-05-10T04:04:29;99799.66;;;13.09;77.72
11605;BME280;5858;43.076;25.626;2023-05-10T04:06:56;99800.31;;;13.40;75.59
11605;BME280;5858;43.076;25.626;2023-05-10T04:09:23;99741.31;;;13.03;75.23
11605;BME280;5858;43.076;25.626;2023-05-10T04:11:50;99755.91;;;12.79;74.79
11605;BME280;5858;43.076;25.626;2023-05-10T04:14:18;99686.28;;;12.18;75.27
11605;BME280;5858;43.076;25.626;2023-05-10T04:16:44;99678.81;;;12.43;75.24
11605;BME280;5858;43.076;25.626;2023-05-10T04:19:13;99670.56;;;12.45;76.12
11605;BME280;5858;43.076;25.626;2023-05-10T04:21:40;99721.50;;;13.04;74.78
11605;BME280;5858;43.076;25.626;2023-05-10T04:24:07;99781.25;;;13.78;73.83
11605;BME280;5858;43.076;25.626;2023-05-10T04:26:34;99658.41;;;13.36;72.67
11605;BME280;5858;43.076;25.626;2023-05-10T04:29:01;99793.94;;;14.61;70.57
11605;BME280;5858;43.076;25.626;2023-05-10T04:31:28;99788.97;;;14.93;68.72
11605;BME280;5858;43.076;25.626;2023-05-10T04:33:55;99749.34;;;14.52;64.59
11605;BME280;5858;43.076;25.626;2023-05-10T04:36:27;99769.44;;;14.49;65.15
11605;BME280;5858;43.076;25.626;2023-05-10T04:38:54;99762.44;;;14.27;67.21
11605;BME280;5858;43.076;25.626;2023-05-10T04:41:22;99781.84;;;14.78;66.44
11605;BME280;5858;43.076;25.626;2023-05-10T04:43:50;99679.78;;;14.21;65.86
11605;BME280;5858;43.076;25.626;2023-05-10T04:46:20;99728.47;;;14.26;63.21
11605;BME280;5858;43.076;25.626;2023-05-10T04:48:47;99747.03;;;14.42;63.08
11605;BME280;5858;43.076;25.626;2023-05-10T04:51:14;99724.03;;;14.81;61.95
11605;BME280;5858;43.076;25.626;2023-05-10T04:53:43;99763.97;;;15.66;60.28
11605;BME280;5858;43.076;25.626;2023-05-10T04:56:10;99633.28;;;14.95;59.81
11605;BME280;5858;43.076;25.626;2023-05-10T04:58:44;99657.00;;;15.32;54.84
11605;BME280;5858;43.076;25.626;2023-05-10T05:01:12;99699.63;;;15.70;51.72
11605;BME280;5858;43.076;25.626;2023-05-10T05:03:44;99691.28;;;16.18;50.93
11605;BME280;5858;43.076;25.626;2023-05-10T05:06:11;99611.34;;;15.11;52.43
11605;BME280;5858;43.076;25.626;2023-05-10T05:08:40;99620.41;;;14.77;52.19
11605;BME280;5858;43.076;25.626;2023-05-10T05:11:10;99663.13;;;14.93;50.54
11605;BME280;5858;43.076;25.626;2023-05-10T05:13:37;99609.78;;;14.62;49.87
11605;BME280;5858;43.076;25.626;2023-05-10T05:16:05;99712.56;;;15.14;50.34
11605;BME280;5858;43.076;25.626;2023-05-10T05:18:32;99678.38;;;15.34;49.97
11605;BME280;5858;43.076;25.626;2023-05-10T05:21:00;99773.06;;;16.51;48.96
11605;BME280;5858;43.076;25.626;2023-05-10T05:23:27;99731.75;;;16.37;47.75
11605;BME280;5858;43.076;25.626;2023-05-10T05:25:54;99635.44;;;15.98;47.01
11605;BME280;5858;43.076;25.626;2023-05-10T05:28:22;99700.25;;;16.12;47.50
11605;BME280;5858;43.076;25.626;2023-05-10T05:30:53;99687.91;;;15.36;48.34
11605;BME280;5858;43.076;25.626;2023-05-10T05:33:22;99759.38;;;15.67;47.15
11605;BME280;5858;43.076;25.626;2023-05-10T05:35:52;99787.00;;;16.02;47.89
11605;BME280;5858;43.076;25.626;2023-05-10T05:38:19;99732.78;;;16.56;47.80
11605;BME280;5858;43.076;25.626;2023-05-10T05:40:46;99703.03;;;16.63;42.58
11605;BME280;5858;43.076;25.626;2023-05-10T05:43:13;99735.16;;;16.97;42.75
11605;BME280;5858;43.076;25.626;2023-05-10T05:45:43;99765.66;;;17.56;43.84
11605;BME280;5858;43.076;25.626;2023-05-10T05:48:13;99628.84;;;16.59;44.17
11605;BME280;5858;43.076;25.626;2023-05-10T05:50:40;99737.63;;;17.44;42.87
11605;BME280;5858;43.076;25.626;2023-05-10T05:53:08;99779.59;;;17.98;42.33
11605;BME280;5858;43.076;25.626;2023-05-10T05:55:36;99643.00;;;17.06;41.02
11605;BME280;5858;43.076;25.626;2023-05-10T05:58:35;99655.22;;;17.40;40.40
11605;BME280;5858;43.076;25.626;2023-05-10T06:01:06;99670.72;;;17.57;39.66
11605;BME280;5858;43.076;25.626;2023-05-10T06:03:50;99741.19;;;18.25;39.72
11605;BME280;5858;43.076;25.626;2023-05-10T06:06:18;99614.88;;;17.38;38.07
11605;BME280;5858;43.076;25.626;2023-05-10T06:16:41;99780.09;;;19.66;37.94
11605;BME280;5858;43.076;25.626;2023-05-10T06:19:09;99768.97;;;19.56;36.91
11605;BME280;5858;43.076;25.626;2023-05-10T06:21:36;99640.34;;;18.42;38.97
11605;BME280;5858;43.076;25.626;2023-05-10T06:24:05;99714.84;;;18.58;40.64
11605;BME280;5858;43.076;25.626;2023-05-10T06:26:33;99767.94;;;19.20;40.93
11605;BME280;5858;43.076;25.626;2023-05-10T06:29:00;99771.50;;;18.66;39.68
11605;BME280;5858;43.076;25.626;2023-05-10T06:31:36;99643.63;;;17.33;40.76
11605;BME280;5858;43.076;25.626;2023-05-10T06:34:05;99715.31;;;17.48;42.71
11605;BME280;5858;43.076;25.626;2023-05-10T06:36:33;99775.06;;;17.47;42.67
11605;BME280;5858;43.076;25.626;2023-05-10T06:39:03;99620.78;;;16.46;42.09
11605;BME280;5858;43.076;25.626;2023-05-10T06:41:43;99639.91;;;16.95;40.80
11605;BME280;5858;43.076;25.626;2023-05-10T06:44:10;99679.91;;;17.50;41.43
11605;BME280;5858;43.076;25.626;2023-05-10T06:46:41;99723.91;;;17.77;42.01
11605;BME280;5858;43.076;25.626;2023-05-10T06:49:09;99763.19;;;17.48;41.91
11605;BME280;5858;43.076;25.626;2023-05-10T06:51:37;99645.47;;;16.62;41.83
11605;BME280;5858;43.076;25.626;2023-05-10T06:54:04;99779.75;;;17.26;41.62
11605;BME280;5858;43.076;25.626;2023-05-10T06:56:32;99783.72;;;17.24;44.67
11605;BME280;5858;43.076;25.626;2023-05-10T06:59:02;99683.94;;;16.45;44.53
11605;BME280;5858;43.076;25.626;2023-05-10T07:01:30;99786.56;;;16.84;46.16
11605;BME280;5858;43.076;25.626;2023-05-10T07:04:28;99613.88;;;15.85;45.38
11605;BME280;5858;43.076;25.626;2023-05-10T07:06:55;99770.56;;;16.76;45.89
11605;BME280;5858;43.076;25.626;2023-05-10T07:09:22;99704.16;;;16.29;44.89
11605;BME280;5858;43.076;25.626;2023-05-10T07:11:49;99670.13;;;16.01;46.42
11605;BME280;5858;43.076;25.626;2023-05-10T07:14:16;99706.03;;;15.95;44.06
11605;BME280;5858;43.076;25.626;2023-05-10T07:16:47;99719.13;;;15.92;44.16
11605;BME280;5858;43.076;25.626;2023-05-10T07:19:22;99765.38;;;16.55;44.83
11605;BME280;5858;43.076;25.626;2023-05-10T07:21:51;99733.03;;;16.28;44.51
11605;BME280;5858;43.076;25.626;2023-05-10T07:24:18;99667.63;;;15.93;45.05
11605;BME280;5858;43.076;25.626;2023-05-10T07:26:48;99634.00;;;15.89;44.89
11605;BME280;5858;43.076;25.626;2023-05-10T07:29:15;99764.78;;;16.66;44.22
11605;BME280;5858;43.076;25.626;2023-05-10T07:31:42;99758.06;;;16.88;44.26
11605;BME280;5858;43.076;25.626;2023-05-10T07:34:09;99758.28;;;16.87;44.64
11605;BME280;5858;43.076;25.626;2023-05-10T07:36:38;99727.28;;;16.89;43.79
11605;BME280;5858;43.076;25.626;2023-05-10T07:39:05;99686.25;;;16.41;42.81
11605;BME280;5858;43.076;25.626;2023-05-10T07:41:54;99674.16;;;16.57;44.24
11605;BME280;5858;43.076;25.626;2023-05-10T07:44:24;99644.34;;;16.25;42.74
11605;BME280;5858;43.076;25.626;2023-05-10T07:46:52;99757.09;;;16.56;43.55
11605;BME280;5858;43.076;25.626;2023-05-10T07:49:19;99705.19;;;16.21;44.45
11605;BME280;5858;43.076;25.626;2023-05-10T07:51:51;99786.13;;;16.87;46.33
11605;BME280;5858;43.076;25.626;2023-05-10T07:54:24;99671.25;;;16.58;45.05
11605;BME280;5858;43.076;25.626;2023-05-10T07:56:51;99686.88;;;16.36;43.36
11605;BME280;5858;43.076;25.626;2023-05-10T07:59:19;99608.44;;;16.12;43.73
11605;BME280;5858;43.076;25.626;2023-05-10T08:01:46;99719.38;;;16.88;43.23
11605;BME280;5858;43.076;25.626;2023-05-10T08:04:13;99677.28;;;16.67;42.21
11605;BME280;5858;43.076;25.626;2023-05-10T08:06:40;99685.25;;;16.93;44.59
11605;BME280;5858;43.076;25.626;2023-05-10T08:09:10;99761.88;;;17.63;43.91
11605;BME280;5858;43.076;25.626;2023-05-10T08:11:39;99737.94;;;17.60;40.71
11605;BME280;5858;43.076;25.626;2023-05-10T08:14:06;99780.25;;;17.55;40.69
11605;BME280;5858;43.076;25.626;2023-05-10T08:16:46;99734.09;;;17.05;41.94
11605;BME280;5858;43.076;25.626;2023-05-10T08:19:21;99672.66;;;16.74;42.21
11605;BME280;5858;43.076;25.626;2023-05-10T08:21:52;99602.78;;;16.26;43.20
11605;BME280;5858;43.076;25.626;2023-05-10T08:24:24;99593.28;;;16.11;43.86
11605;BME280;5858;43.076;25.626;2023-05-10T08:26:51;99719.97;;;16.96;42.65
11605;BME280;5858;43.076;25.626;2023-05-10T08:29:36;99693.47;;;16.74;42.91
11605;BME280;5858;43.076;25.626;2023-05-10T08:32:04;99735.81;;;17.31;43.94
11605;BME280;5858;43.076;25.626;2023-05-10T08:34:33;99732.53;;;17.67;42.48
11605;BME280;5858;43.076;25.626;2023-05-10T08:37:06;99771.78;;;18.08;39.89
11605;BME280;5858;43.076;25.626;2023-05-10T08:39:40;99672.09;;;17.73;43.31
11605;BME280;5858;43.076;25.626;2023-05-10T08:42:20;99634.09;;;17.30;39.34
11605;BME280;5858;43.076;25.626;2023-05-10T08:44:53;99610.50;;;17.12;40.05
11605;BME280;5858;43.076;25.626;2023-05-10T08:47:32;99628.41;;;17.38;41.49
11605;BME280;5858;43.076;25.626;2023-05-10T08:50:06;99591.41;;;17.32;42.34
11605;BME280;5858;43.076;25.626;2023-05-10T08:52:48;99764.53;;;18.27;39.76
11605;BME280;5858;43.076;25.626;2023-05-10T08:55:33;99586.31;;;17.42;40.74
11605;BME280;5858;43.076;25.626;2023-05-10T08:58:40;99750.03;;;18.39;38.05
11605;BME280;5858;43.076;25.626;2023-05-10T09:01:07;99562.78;;;16.93;38.28
11605;BME280;5858;43.076;25.626;2023-05-10T09:04:24;99654.69;;;17.31;39.21
11605;BME280;5858;43.076;25.626;2023-05-10T09:06:41;99641.19;;;17.24;38.90
11605;BME280;5858;43.076;25.626;2023-05-10T09:09:12;99583.97;;;16.96;38.78
11605;BME280;5858;43.076;25.626;2023-05-10T09:11:43;99742.28;;;18.00;39.16
11605;BME280;5858;43.076;25.626;2023-05-10T09:14:10;99691.66;;;17.75;38.51
11605;BME280;5858;43.076;25.626;2023-05-10T09:16:39;99707.00;;;18.06;38.63
11605;BME280;5858;43.076;25.626;2023-05-10T09:19:08;99627.41;;;17.33;38.29
11605;BME280;5858;43.076;25.626;2023-05-10T09:21:35;99674.50;;;17.81;38.46
11605;BME280;5858;43.076;25.626;2023-05-10T09:24:05;99720.22;;;18.39;39.22
11605;BME280;5858;43.076;25.626;2023-05-10T09:26:45;99586.00;;;17.82;39.06
11605;BME280;5858;43.076;25.626;2023-05-10T09:29:14;99713.56;;;18.97;39.52
11605;BME280;5858;43.076;25.626;2023-05-10T09:31:48;99711.06;;;18.59;38.44
11605;BME280;5858;43.076;25.626;2023-05-10T09:34:31;99623.13;;;18.00;37.39
11605;BME280;5858;43.076;25.626;2023-05-10T09:37:01;99712.81;;;18.71;37.34
11605;BME280;5858;43.076;25.626;2023-05-10T09:39:34;99522.72;;;17.58;37.31
11605;BME280;5858;43.076;25.626;2023-05-10T09:42:04;99699.94;;;18.48;38.56
11605;BME280;5858;43.076;25.626;2023-05-10T09:44:32;99555.53;;;16.87;39.41
11605;BME280;5858;43.076;25.626;2023-05-10T09:47:00;99725.41;;;17.98;40.35
11605;BME280;5858;43.076;25.626;2023-05-10T09:49:36;99720.63;;;18.00;38.27
11605;BME280;5858;43.076;25.626;2023-05-10T09:52:05;99620.34;;;17.31;37.90
11605;BME280;5858;43.076;25.626;2023-05-10T09:54:33;99601.91;;;17.47;38.96
11605;BME280;5858;43.076;25.626;2023-05-10T09:57:05;99621.09;;;17.70;38.61
11605;BME280;5858;43.076;25.626;2023-05-10T09:59:42;99524.78;;;17.38;39.12
11605;BME280;5858;43.076;25.626;2023-05-10T10:02:16;99603.13;;;18.19;37.39
11605;BME280;5858;43.076;25.626;2023-05-10T10:04:55;99574.22;;;18.13;37.82
11605;BME280;5858;43.076;25.626;2023-05-10T10:07:24;99679.84;;;18.74;37.75
11605;BME280;5858;43.076;25.626;2023-05-10T10:09:51;99686.78;;;18.70;38.02
11605;BME280;5858;43.076;25.626;2023-05-10T10:12:21;99542.81;;;17.44;38.19
11605;BME280;5858;43.076;25.626;2023-05-10T10:14:48;99633.00;;;18.12;37.24
11605;BME280;5858;43.076;25.626;2023-05-10T10:17:19;99580.31;;;17.65;37.61
11605;BME280;5858;43.076;25.626;2023-05-10T10:19:48;99566.69;;;17.78;36.17
11605;BME280;5858;43.076;25.626;2023-05-10T10:22:19;99643.91;;;18.42;36.35
11605;BME280;5858;43.076;25.626;2023-05-10T10:25:03;99638.63;;;18.29;35.60
11605;BME280;5858;43.076;25.626;2023-05-10T10:27:57;99518.16;;;17.95;36.90
11605;BME280;5858;43.076;25.626;2023-05-10T10:30:31;99636.22;;;18.94;35.28
11605;BME280;5858;43.076;25.626;2023-05-10T10:34:08;99635.06;;;19.43;36.36
11605;BME280;5858;43.076;25.626;2023-05-10T10:40:27;99680.69;;;19.76;33.97
11605;BME280;5858;43.076;25.626;2023-05-10T10:43:28;99508.41;;;19.02;35.56
11605;BME280;5858;43.076;25.626;2023-05-10T10:46:21;99513.63;;;19.50;33.90
11605;BME280;5858;43.076;25.626;2023-05-10T10:52:33;99632.06;;;21.59;32.36
11605;BME280;5858;43.076;25.626;2023-05-10T10:55:05;99666.44;;;21.20;31.77
11605;BME280;5858;43.076;25.626;2023-05-10T10:57:42;99646.13;;;20.42;33.49
11605;BME280;5858;43.076;25.626;2023-05-10T11:00:26;99558.97;;;19.73;33.67
11605;BME280;5858;43.076;25.626;2023-05-10T11:03:03;99631.50;;;19.96;35.75
11605;BME280;5858;43.076;25.626;2023-05-10T11:05:46;99671.84;;;19.69;36.76
11605;BME280;5858;43.076;25.626;2023-05-10T11:11:24;99603.09;;;18.55;38.36
11605;BME280;5858;43.076;25.626;2023-05-10T11:14:03;99617.19;;;18.46;38.33
11605;BME280;5858;43.076;25.626;2023-05-10T11:16:40;99642.84;;;18.43;38.73
11605;BME280;5858;43.076;25.626;2023-05-10T11:19:11;99576.63;;;18.21;39.41
11605;BME280;5858;43.076;25.626;2023-05-10T11:21:45;99667.94;;;18.75;39.66
11605;BME280;5858;43.076;25.626;2023-05-10T11:24:17;99632.63;;;18.27;39.18
11605;BME280;5858;43.076;25.626;2023-05-10T11:26:44;99623.75;;;18.56;40.20
11605;BME280;5858;43.076;25.626;2023-05-10T16:04:21;99557.22;;;17.62;42.36
11605;BME280;5858;43.076;25.626;2023-05-10T16:06:50;99569.38;;;17.78;42.35
11605;BME280;5858;43.076;25.626;2023-05-10T16:09:17;99547.09;;;17.58;41.99
11605;BME280;5858;43.076;25.626;2023-05-10T16:11:44;99490.06;;;17.35;42.50
11605;BME280;5858;43.076;25.626;2023-05-10T16:14:11;99574.41;;;17.75;42.59
11605;BME280;5858;43.076;25.626;2023-05-10T16:16:38;99492.00;;;17.27;43.44
11605;BME280;5858;43.076;25.626;2023-05-10T16:19:05;99479.97;;;16.98;43.12
11605;BME280;5858;43.076;25.626;2023-05-10T16:21:35;99597.22;;;17.60;44.66
11605;BME280;5858;43.076;25.626;2023-05-10T16:24:06;99534.00;;;17.30;44.21
11605;BME280;5858;43.076;25.626;2023-05-10T16:26:33;99508.72;;;16.93;44.17
11605;BME280;5858;43.076;25.626;2023-05-10T16:29:05;99501.66;;;16.92;43.91
11605;BME280;5858;43.076;25.626;2023-05-10T16:31:32;99582.19;;;17.65;43.56
11605;BME280;5858;43.076;25.626;2023-05-10T16:33:59;99400.56;;;16.43;42.88
11605;BME280;5858;43.076;25.626;2023-05-10T16:36:27;99512.59;;;17.04;43.49
11605;BME280;5858;43.076;25.626;2023-05-10T16:38:59;99434.53;;;16.26;42.84
11605;BME280;5858;43.076;25.626;2023-05-10T16:41:34;99591.91;;;17.22;42.91
11605;BME280;5858;43.076;25.626;2023-05-10T16:44:01;99512.84;;;16.64;43.28
11605;BME280;5858;43.076;25.626;2023-05-10T16:46:29;99502.75;;;16.46;43.20
11605;BME280;5858;43.076;25.626;2023-05-10T16:48:56;99510.06;;;16.39;43.92
11605;BME280;5858;43.076;25.626;2023-05-10T16:51:24;99606.25;;;16.91;43.95
11605;BME280;5858;43.076;25.626;2023-05-10T16:53:52;99496.50;;;16.14;44.94
11605;BME280;5858;43.076;25.626;2023-05-10T16:56:25;99454.94;;;15.57;44.85
11605;BME280;5858;43.076;25.626;2023-05-10T16:59:50;99507.97;;;15.96;45.51
11605;BME280;5858;43.076;25.626;2023-05-10T17:02:12;99504.91;;;15.86;45.80
11605;BME280;5858;43.076;25.626;2023-05-10T17:04:42;99484.84;;;15.62;45.81
11605;BME280;5858;43.076;25.626;2023-05-10T17:07:10;99560.66;;;16.05;45.97
11605;BME280;5858;43.076;25.626;2023-05-10T17:09:41;99506.22;;;15.37;47.11
11605;BME280;5858;43.076;25.626;2023-05-10T17:12:16;99532.31;;;15.57;47.75
11605;BME280;5858;43.076;25.626;2023-05-10T17:14:43;99511.81;;;15.49;48.21
11605;BME280;5858;43.076;25.626;2023-05-10T17:17:16;99600.13;;;16.06;48.75
11605;BME280;5858;43.076;25.626;2023-05-10T17:19:53;99498.56;;;15.21;49.17
11605;BME280;5858;43.076;25.626;2023-05-10T17:22:28;99453.38;;;14.90;49.22
11605;BME280;5858;43.076;25.626;2023-05-10T17:25:01;99604.13;;;15.91;50.12
11605;BME280;5858;43.076;25.626;2023-05-10T17:27:44;99541.25;;;15.44;49.90
11605;BME280;5858;43.076;25.626;2023-05-10T17:30:14;99621.78;;;15.80;51.23
11605;BME280;5858;43.076;25.626;2023-05-10T17:32:51;99595.22;;;15.77;51.21
11605;BME280;5858;43.076;25.626;2023-05-10T17:35:40;99608.31;;;15.73;52.04
11605;BME280;5858;43.076;25.626;2023-05-10T17:38:17;99553.09;;;15.30;51.75
11605;BME280;5858;43.076;25.626;2023-05-10T17:40:45;99576.13;;;15.19;52.57
11605;BME280;5858;43.076;25.626;2023-05-10T17:43:15;99587.13;;;15.31;52.83
11605;BME280;5858;43.076;25.626;2023-05-10T17:45:49;99536.06;;;14.83;53.75
11605;BME280;5858;43.076;25.626;2023-05-10T17:48:38;99629.88;;;15.60;53.70
11605;BME280;5858;43.076;25.626;2023-05-10T17:51:07;99437.38;;;14.36;54.09
11605;BME280;5858;43.076;25.626;2023-05-10T17:53:42;99598.09;;;15.36;54.14
11605;BME280;5858;43.076;25.626;2023-05-10T17:56:20;99658.25;;;15.56;54.08
11605;BME280;5858;43.076;25.626;2023-05-10T17:58:49;99613.66;;;15.34;53.40
11605;BME280;5858;43.076;25.626;2023-05-10T18:01:19;99635.66;;;15.31;52.63
11605;BME280;5858;43.076;25.626;2023-05-10T18:03:48;99540.63;;;14.69;52.31
11605;BME280;5858;43.076;25.626;2023-05-10T18:06:16;99569.66;;;14.94;53.72
11605;BME280;5858;43.076;25.626;2023-05-10T18:08:46;99671.34;;;15.46;55.19
11605;BME280;5858;43.076;25.626;2023-05-10T18:11:20;99549.13;;;14.73;54.92
11605;BME280;5858;43.076;25.626;2023-05-10T18:13:53;99628.38;;;15.18;54.81
11605;BME280;5858;43.076;25.626;2023-05-10T18:16:27;99615.03;;;14.77;57.12
11605;BME280;5858;43.076;25.626;2023-05-10T18:18:57;99532.59;;;14.28;56.37